createdAt,value
2019-05-30T00:00:23.234Z,58.00
2019-05-30T00:02:49.040Z,57.57
2019-05-30T00:05:14.839Z,57.57
2019-05-30T00:07:40.647Z,57.47
2019-05-30T00:10:06.555Z,57.64
2019-05-30T00:12:32.347Z,57.34
2019-05-30T00:14:58.615Z,56.83
2019-05-30T00:17:24.454Z,57.83
2019-05-30T00:19:50.380Z,57.83
2019-05-30T00:22:16.284Z,57.42
2019-05-30T00:24:42.125Z,57.39
2019-05-30T00:27:08.065Z,57.10
2019-05-30T00:29:35.713Z,57.41
2019-05-30T00:32:01.754Z,57.58
2019-05-30T00:34:27.558Z,58.07
2019-05-30T00:36:53.353Z,58.02
2019-05-30T00:39:19.137Z,58.63
2019-05-30T00:41:44.965Z,58.72
2019-05-30T00:44:10.786Z,58.86
2019-05-30T00:46:36.593Z,59.22
2019-05-30T00:49:02.531Z,59.47
2019-05-30T00:51:28.366Z,59.79
2019-05-30T00:53:54.187Z,59.78
2019-05-30T00:56:19.991Z,60.58
2019-05-30T00:58:45.790Z,60.93
2019-05-30T01:01:12.956Z,61.10
2019-05-30T01:03:38.804Z,61.52
2019-05-30T01:06:04.985Z,61.94
2019-05-30T01:08:30.895Z,62.31
2019-05-30T01:10:56.925Z,62.39
2019-05-30T01:13:22.773Z,62.67
2019-05-30T01:15:48.781Z,62.93
2019-05-30T01:18:14.581Z,63.07
2019-05-30T01:20:42.124Z,63.81
2019-05-30T01:23:07.952Z,64.41
2019-05-30T01:25:33.733Z,64.41
2019-05-30T01:27:59.604Z,64.94
2019-05-30T01:30:25.363Z,65.00
2019-05-30T01:32:51.154Z,64.88
2019-05-30T01:35:16.953Z,64.88
2019-05-30T01:37:42.767Z,64.99
2019-05-30T01:40:09.131Z,65.09
2019-05-30T01:42:35.995Z,64.83
2019-05-30T01:45:04.160Z,65.73
2019-05-30T01:47:30.145Z,65.73
2019-05-30T01:49:55.944Z,65.97
2019-05-30T01:52:21.807Z,66.44
2019-05-30T01:54:47.841Z,66.71
2019-05-30T01:57:13.625Z,67.18
2019-05-30T01:59:39.436Z,67.08
2019-05-30T02:02:05.216Z,67.30
2019-05-30T02:04:31.021Z,67.50
2019-05-30T02:06:56.926Z,67.50
2019-05-30T02:09:23.007Z,68.36
2019-05-30T02:11:49.046Z,68.43
2019-05-30T02:14:14.863Z,68.40
2019-05-30T02:16:40.670Z,68.40
2019-05-30T02:19:07.830Z,68.55
2019-05-30T02:21:33.766Z,69.10
2019-05-30T02:23:59.802Z,69.19
2019-05-30T02:26:25.667Z,69.06
2019-05-30T02:28:51.490Z,68.89
2019-05-30T02:31:37.357Z,68.74
2019-05-30T02:33:45.019Z,68.94
2019-05-30T02:36:12.505Z,68.94
2019-05-30T02:38:38.503Z,68.41
2019-05-30T02:41:05.767Z,68.18
2019-05-30T02:43:32.531Z,67.77
2019-05-30T02:45:58.305Z,67.71
2019-05-30T02:48:24.098Z,67.38
2019-05-30T02:50:49.879Z,67.40
2019-05-30T02:53:15.666Z,66.86
2019-05-30T02:55:41.485Z,66.18
2019-05-30T02:58:08.639Z,66.14
2019-05-30T03:00:36.931Z,65.51
2019-05-30T03:03:03.966Z,65.05
2019-05-30T03:05:31.060Z,64.86
2019-05-30T03:07:56.998Z,64.48
2019-05-30T03:10:22.911Z,64.02
2019-05-30T03:12:48.727Z,64.12
2019-05-30T03:15:15.749Z,64.09
2019-05-30T03:17:42.007Z,63.97
2019-05-30T03:20:14.873Z,63.74
2019-05-30T03:22:35.696Z,63.33
2019-05-30T03:25:02.938Z,63.37
2019-05-30T03:27:29.624Z,63.21
2019-05-30T03:29:55.563Z,63.20
2019-05-30T03:34:49.210Z,62.85
2019-05-30T03:37:26.648Z,62.47
2019-05-30T03:39:42.819Z,62.50
2019-05-30T03:42:09.461Z,61.97
2019-05-30T03:44:36.437Z,62.08
2019-05-30T03:47:08.336Z,62.29
2019-05-30T03:49:36.601Z,61.47
2019-05-30T03:52:05.556Z,61.74
2019-05-30T03:54:32.099Z,61.70
2019-05-30T03:57:01.724Z,62.04
2019-05-30T03:59:31.305Z,61.50
2019-05-30T04:02:13.977Z,61.43
2019-05-30T04:04:46.144Z,61.64
2019-05-30T04:07:15.920Z,61.41
2019-05-30T04:09:42.649Z,61.55
2019-05-30T04:12:28.949Z,61.89
2019-05-30T04:14:58.535Z,61.63
2019-05-30T04:17:24.357Z,61.24
2019-05-30T04:19:50.163Z,61.36
2019-05-30T04:22:15.956Z,61.48
2019-05-30T04:24:41.747Z,61.25
2019-05-30T04:27:09.398Z,61.15
2019-05-30T04:29:35.263Z,61.34
2019-05-30T04:32:01.083Z,60.84
2019-05-30T04:34:26.859Z,60.98
2019-05-30T04:36:53.551Z,61.11
2019-05-30T04:39:19.670Z,61.11
2019-05-30T04:41:45.505Z,60.58
2019-05-30T04:44:11.924Z,60.76
2019-05-30T04:46:38.973Z,61.20
2019-05-30T04:49:04.792Z,61.23
2019-05-30T04:51:30.581Z,61.16
2019-05-30T04:53:56.394Z,61.31
2019-05-30T04:56:22.292Z,61.48
2019-05-30T04:58:48.074Z,61.70
2019-05-30T05:01:15.541Z,61.83
2019-05-30T05:03:45.916Z,61.83
2019-05-30T05:06:09.259Z,61.27
2019-05-30T05:08:35.050Z,61.32
2019-05-30T05:11:00.864Z,61.39
2019-05-30T05:13:26.661Z,60.94
2019-05-30T05:15:52.448Z,60.70
2019-05-30T05:18:19.227Z,61.07
2019-05-30T05:20:45.158Z,60.62
2019-05-30T05:23:10.958Z,60.98
2019-05-30T05:25:36.762Z,61.02
2019-05-30T05:28:02.571Z,61.15
2019-05-30T05:30:28.377Z,61.47
2019-05-30T05:32:54.182Z,61.23
2019-05-30T05:35:20.853Z,61.07
2019-05-30T05:37:46.777Z,61.07
2019-05-30T05:40:12.659Z,60.83
2019-05-30T05:42:38.442Z,61.51
2019-05-30T05:45:07.821Z,61.12
2019-05-30T05:47:33.603Z,61.35
2019-05-30T05:49:59.389Z,61.39
2019-05-30T05:52:25.289Z,60.52
2019-05-30T05:54:51.085Z,60.64
2019-05-30T05:57:16.887Z,60.20
2019-05-30T05:59:42.684Z,60.10
2019-05-30T06:02:09.473Z,60.54
2019-05-30T06:04:35.267Z,60.35
2019-05-30T06:07:01.053Z,60.47
2019-05-30T06:09:26.867Z,60.36
2019-05-30T06:11:52.636Z,60.30
2019-05-30T06:14:19.737Z,60.12
2019-05-30T06:16:45.632Z,60.59
2019-05-30T06:19:11.454Z,60.91
2019-05-30T06:21:51.075Z,60.47
2019-05-30T06:24:05.056Z,60.86
2019-05-30T06:26:30.902Z,60.31
2019-05-30T06:28:56.817Z,60.56
2019-05-30T06:31:24.372Z,60.18
2019-05-30T06:33:50.214Z,60.50
2019-05-30T06:36:16.038Z,60.70
2019-05-30T06:38:41.858Z,60.10
2019-05-30T06:41:07.670Z,59.88
2019-05-30T06:43:33.449Z,59.77
2019-05-30T06:45:59.251Z,60.63
2019-05-30T06:48:25.037Z,59.51
2019-05-30T06:50:50.852Z,59.53
2019-05-30T06:53:16.645Z,60.35
2019-05-30T06:55:42.439Z,60.27
2019-05-30T06:58:08.239Z,59.52
2019-05-30T07:00:34.142Z,60.08
2019-05-30T07:02:59.945Z,59.37
2019-05-30T07:05:27.790Z,58.87
2019-05-30T07:07:53.737Z,59.20
2019-05-30T07:10:20.156Z,58.99
2019-05-30T07:12:45.949Z,59.25
2019-05-30T07:15:12.950Z,58.53
2019-05-30T07:17:38.746Z,58.27
2019-05-30T07:20:05.368Z,58.12
2019-05-30T07:22:31.884Z,58.54
2019-05-30T07:24:57.644Z,58.22
2019-05-30T07:27:23.756Z,57.75
2019-05-30T07:29:49.634Z,58.35
2019-05-30T07:32:15.437Z,58.29
2019-05-30T07:34:41.232Z,59.18
2019-05-30T07:37:07.026Z,59.58
2019-05-30T07:39:35.050Z,58.46
2019-05-30T07:42:06.275Z,59.54
2019-05-30T07:44:28.738Z,59.96
2019-05-30T07:46:54.626Z,59.56
2019-05-30T07:49:20.432Z,60.05
2019-05-30T07:51:46.284Z,61.29
2019-05-30T07:54:12.081Z,63.28
2019-05-30T07:56:38.111Z,63.79
2019-05-30T07:59:03.885Z,63.81
2019-05-30T08:01:30.519Z,64.37
2019-05-30T08:03:56.361Z,64.26
2019-05-30T08:06:22.216Z,64.20
2019-05-30T08:08:47.986Z,65.83
2019-05-30T08:11:13.921Z,66.88
2019-05-30T08:13:39.716Z,66.35
2019-05-30T08:16:05.508Z,66.90
2019-05-30T08:18:31.649Z,67.58
2019-05-30T08:20:57.525Z,68.83
2019-05-30T08:23:23.321Z,68.28
2019-05-30T08:25:49.129Z,68.98
2019-05-30T08:28:14.948Z,70.01
2019-05-30T08:30:40.738Z,70.24
2019-05-30T08:33:06.530Z,71.31
2019-05-30T08:35:43.513Z,73.10
2019-05-30T08:38:00.010Z,75.02
2019-05-30T08:40:25.797Z,76.64
2019-05-30T08:42:51.593Z,77.00
2019-05-30T08:45:17.678Z,78.13
2019-05-30T08:47:43.495Z,77.07
2019-05-30T08:50:09.649Z,78.56
2019-05-30T08:52:36.467Z,78.27
2019-05-30T08:55:03.961Z,79.29
2019-05-30T08:57:30.496Z,80.44
2019-05-30T08:59:56.401Z,80.93
2019-05-30T09:02:22.288Z,81.76
2019-05-30T09:04:48.118Z,82.63
2019-05-30T09:07:13.902Z,82.42
2019-05-30T09:09:40.216Z,82.75
2019-05-30T09:12:06.105Z,83.60
2019-05-30T09:14:31.927Z,83.88
2019-05-30T09:16:57.813Z,84.18
2019-05-30T09:19:23.607Z,83.59
2019-05-30T09:21:49.390Z,84.10
2019-05-30T09:24:15.180Z,84.48
2019-05-30T09:26:45.312Z,83.91
2019-05-30T09:29:08.701Z,84.87
2019-05-30T09:31:34.500Z,85.27
2019-05-30T09:34:00.300Z,85.27
2019-05-30T09:36:26.083Z,86.01
2019-05-30T09:38:51.885Z,86.22
2019-05-30T09:41:17.765Z,86.30
2019-05-30T09:43:44.722Z,86.40
2019-05-30T09:46:10.850Z,86.95
2019-05-30T09:48:36.656Z,87.17
2019-05-30T09:51:02.452Z,86.84
2019-05-30T09:53:28.256Z,86.63
2019-05-30T09:55:54.040Z,87.21
2019-05-30T09:58:19.841Z,87.13
2019-05-30T10:00:47.223Z,87.49
2019-05-30T10:03:13.354Z,87.40
2019-05-30T10:05:39.170Z,87.64
2019-05-30T10:08:04.972Z,87.54
2019-05-30T10:10:30.773Z,87.88
2019-05-30T10:12:56.616Z,88.60
2019-05-30T10:15:22.554Z,88.58
2019-05-30T10:17:51.802Z,88.86
2019-05-30T10:20:16.067Z,89.54
2019-05-30T10:22:41.896Z,90.02
2019-05-30T10:25:07.804Z,89.57
2019-05-30T10:27:33.629Z,90.11
2019-05-30T10:29:59.422Z,90.68
2019-05-30T10:32:25.210Z,90.96
2019-05-30T10:34:51.912Z,90.94
2019-05-30T10:37:17.802Z,90.67
2019-05-30T10:39:45.549Z,90.63
2019-05-30T10:42:11.319Z,90.50
2019-05-30T10:44:37.134Z,90.38
2019-05-30T10:47:02.935Z,90.27
2019-05-30T10:49:34.614Z,90.01
2019-05-30T10:51:59.230Z,89.74
2019-05-30T10:54:24.105Z,89.03
2019-05-30T10:56:50.044Z,88.93
2019-05-30T10:59:15.888Z,88.61
2019-05-30T11:01:41.686Z,88.38
2019-05-30T11:04:07.462Z,87.97
2019-05-30T11:06:37.116Z,88.08
2019-05-30T11:09:05.862Z,88.33
2019-05-30T11:11:31.686Z,87.35
2019-05-30T11:13:57.472Z,86.72
2019-05-30T11:16:23.273Z,86.14
2019-05-30T11:18:50.987Z,85.07
2019-05-30T11:21:16.874Z,84.44
2019-05-30T11:23:42.678Z,83.43
2019-05-30T11:26:08.499Z,83.10
2019-05-30T11:28:34.836Z,83.09
2019-05-30T11:31:04.433Z,83.71
2019-05-30T11:33:29.053Z,83.30
2019-05-30T11:35:55.144Z,83.18
2019-05-30T11:38:20.949Z,82.42
2019-05-30T11:40:46.790Z,82.02
2019-05-30T11:43:12.606Z,81.46
2019-05-30T11:45:39.051Z,81.96
2019-05-30T11:48:05.406Z,81.78
2019-05-30T11:50:31.293Z,81.61
2019-05-30T11:52:57.939Z,81.30
2019-05-30T11:55:23.802Z,81.34
2019-05-30T11:57:50.000Z,81.32
2019-05-30T12:00:16.355Z,81.97
2019-05-30T12:02:42.189Z,84.65
2019-05-30T12:05:09.048Z,85.75
2019-05-30T12:07:36.760Z,86.67
2019-05-30T12:10:06.298Z,87.39
2019-05-30T12:12:32.119Z,87.56
2019-05-30T12:14:57.901Z,87.63
2019-05-30T12:17:23.788Z,87.41
2019-05-30T12:19:49.578Z,88.10
2019-05-30T12:22:15.360Z,88.21
2019-05-30T12:24:41.177Z,88.76
2019-05-30T12:27:06.978Z,88.55
2019-05-30T12:29:32.801Z,89.22
2019-05-30T12:32:00.226Z,89.38
2019-05-30T12:34:26.298Z,89.58
2019-05-30T12:36:52.353Z,89.13
2019-05-30T12:39:18.099Z,89.98
2019-05-30T12:41:43.885Z,89.74
2019-05-30T12:44:09.681Z,89.60
2019-05-30T12:46:35.458Z,90.02
2019-05-30T12:49:01.655Z,90.37
2019-05-30T12:51:27.547Z,90.28
2019-05-30T12:53:54.336Z,90.73
2019-05-30T12:56:20.157Z,91.21
2019-05-30T12:58:45.945Z,91.41
2019-05-30T13:01:11.849Z,91.80
2019-05-30T13:03:37.647Z,92.19
2019-05-30T13:06:03.549Z,92.22
2019-05-30T13:08:29.390Z,92.38
2019-05-30T13:10:55.571Z,92.49
2019-05-30T13:13:21.418Z,92.07
2019-05-30T13:15:47.214Z,92.38
2019-05-30T13:18:12.987Z,92.23
2019-05-30T13:20:39.093Z,92.31
2019-05-30T13:23:05.301Z,92.48
2019-05-30T13:25:35.103Z,92.96
2019-05-30T13:28:04.847Z,92.81
2019-05-30T13:30:30.290Z,92.72
2019-05-30T13:32:58.463Z,92.99
2019-05-30T13:35:24.371Z,93.07
2019-05-30T13:37:50.149Z,93.35
2019-05-30T13:40:24.859Z,93.20
2019-05-30T13:42:43.959Z,93.46
2019-05-30T13:45:10.357Z,93.45
2019-05-30T13:47:36.450Z,93.47
2019-05-30T13:50:09.846Z,93.39
2019-05-30T13:52:34.335Z,93.10
2019-05-30T13:55:01.473Z,93.31
2019-05-30T13:57:27.730Z,93.32
2019-05-30T13:59:53.640Z,93.41
2019-05-30T14:02:19.427Z,92.93
2019-05-30T14:04:45.230Z,92.71
2019-05-30T14:07:11.028Z,92.63
2019-05-30T14:09:36.814Z,92.42
2019-05-30T14:12:02.596Z,92.25
2019-05-30T14:14:28.678Z,91.98
2019-05-30T14:16:54.465Z,91.73
2019-05-30T14:19:20.308Z,91.52
2019-05-30T14:21:46.113Z,91.34
2019-05-30T14:24:12.769Z,91.06
2019-05-30T14:26:38.679Z,91.27
2019-05-30T14:29:05.631Z,90.87
2019-05-30T14:31:31.509Z,91.19
2019-05-30T14:33:57.312Z,90.64
2019-05-30T14:36:23.163Z,90.37
2019-05-30T14:38:58.347Z,89.69
2019-05-30T14:41:18.222Z,89.66
2019-05-30T14:43:44.011Z,90.06
2019-05-30T14:46:10.351Z,90.37
2019-05-30T14:48:36.327Z,90.40
2019-05-30T14:51:02.204Z,90.47
2019-05-30T14:53:27.988Z,90.71
2019-05-30T14:55:53.915Z,90.71
2019-05-30T14:58:21.705Z,90.77
2019-05-30T15:00:47.525Z,90.49
2019-05-30T15:03:15.831Z,90.27
2019-05-30T15:05:41.137Z,90.64
2019-05-30T15:08:06.938Z,90.90
2019-05-30T15:10:32.736Z,90.76
2019-05-30T15:12:58.561Z,90.52
2019-05-30T15:15:24.390Z,90.68
2019-05-30T15:17:50.207Z,90.63
2019-05-30T15:20:17.596Z,90.75
2019-05-30T15:22:43.597Z,90.34
2019-05-30T15:25:09.913Z,90.07
2019-05-30T15:27:35.889Z,90.28
2019-05-30T15:30:04.079Z,90.29
2019-05-30T15:32:29.909Z,90.22
2019-05-30T15:34:55.687Z,90.62
2019-05-30T15:37:21.593Z,90.88
2019-05-30T15:39:47.379Z,91.14
2019-05-30T15:42:13.595Z,91.05
2019-05-30T15:44:39.462Z,91.76
2019-05-30T15:47:05.264Z,91.83
2019-05-30T15:49:32.105Z,91.70
2019-05-30T15:51:58.740Z,91.76
2019-05-30T15:54:24.681Z,91.93
2019-05-30T15:56:50.621Z,91.86
2019-05-30T15:59:17.696Z,91.43
2019-05-30T16:01:43.523Z,91.83
2019-05-30T16:04:09.997Z,91.45
2019-05-30T16:06:35.801Z,91.26
2019-05-30T16:09:01.678Z,90.97
2019-05-30T16:11:27.522Z,90.83
2019-05-30T16:13:53.338Z,90.92
2019-05-30T16:16:36.062Z,91.09
2019-05-30T16:18:46.865Z,91.08
2019-05-30T16:21:14.525Z,91.33
2019-05-30T16:23:40.396Z,91.21
2019-05-30T16:26:06.221Z,91.30
2019-05-30T16:28:32.133Z,91.27
2019-05-30T16:30:57.910Z,91.23
2019-05-30T16:33:23.705Z,91.34
2019-05-30T16:35:49.511Z,91.24
2019-05-30T16:38:16.073Z,91.12
2019-05-30T16:40:41.849Z,91.29
2019-05-30T16:43:07.637Z,91.36
2019-05-30T16:45:33.444Z,91.41
2019-05-30T16:47:59.253Z,91.50
2019-05-30T16:50:25.050Z,91.69
2019-05-30T16:52:50.824Z,91.70
2019-05-30T16:55:17.214Z,91.71
2019-05-30T16:57:43.043Z,91.34
2019-05-30T17:00:12.648Z,91.28
2019-05-30T17:02:38.440Z,91.39
2019-05-30T17:05:05.429Z,91.45
2019-05-30T17:07:31.322Z,91.43
2019-05-30T17:09:57.090Z,91.65
2019-05-30T17:12:23.780Z,91.98
2019-05-30T17:14:49.669Z,92.09
2019-05-30T17:17:16.282Z,92.04
2019-05-30T17:19:42.116Z,92.10
2019-05-30T17:22:08.447Z,92.34
2019-05-30T17:24:37.956Z,92.13
2019-05-30T17:27:03.853Z,92.62
2019-05-30T17:29:30.374Z,92.76
2019-05-30T17:31:56.272Z,92.94
2019-05-30T17:34:22.173Z,92.85
2019-05-30T17:36:47.977Z,92.52
2019-05-30T17:39:13.766Z,92.33
2019-05-30T17:41:39.562Z,92.30
2019-05-30T17:44:05.340Z,91.89
2019-05-30T17:46:31.164Z,91.81
2019-05-30T17:48:56.934Z,91.22
2019-05-30T17:51:23.768Z,90.71
2019-05-30T17:53:49.661Z,90.12
2019-05-30T17:56:15.454Z,89.93
2019-05-30T17:58:41.250Z,89.70
2019-05-30T18:01:07.046Z,89.36
2019-05-30T18:03:32.842Z,89.02
2019-05-30T18:05:58.697Z,88.83
2019-05-30T18:08:24.827Z,89.01
2019-05-30T18:10:53.762Z,89.05
2019-05-30T18:13:18.407Z,88.67
2019-05-30T18:15:44.411Z,88.83
2019-05-30T18:18:10.200Z,88.48
2019-05-30T18:20:47.603Z,88.25
2019-05-30T18:23:03.729Z,87.95
2019-05-30T18:25:29.739Z,87.08
2019-05-30T18:27:55.534Z,87.03
2019-05-30T18:30:25.846Z,87.06
2019-05-30T18:32:51.653Z,86.76
2019-05-30T18:35:17.459Z,86.24
2019-05-30T18:37:43.357Z,85.89
2019-05-30T18:40:10.408Z,85.70
2019-05-30T18:42:36.252Z,85.97
2019-05-30T18:45:04.722Z,86.26
2019-05-30T18:47:31.214Z,86.28
2019-05-30T18:49:57.113Z,86.40
2019-05-30T18:52:24.096Z,85.89
2019-05-30T18:54:49.951Z,86.26
2019-05-30T18:57:15.762Z,86.04
2019-05-30T18:59:41.540Z,86.15
2019-05-30T19:02:07.333Z,85.93
2019-05-30T19:04:33.669Z,86.02
2019-05-30T19:06:59.510Z,86.09
2019-05-30T19:09:25.342Z,86.09
2019-05-30T19:11:51.112Z,86.12
2019-05-30T19:14:16.890Z,86.32
2019-05-30T19:16:42.782Z,86.27
2019-05-30T19:19:08.560Z,86.80
2019-05-30T19:21:34.381Z,86.84
2019-05-30T19:24:00.181Z,87.04
2019-05-30T19:26:26.233Z,86.90
2019-05-30T19:28:52.093Z,87.10
2019-05-30T19:31:18.387Z,87.12
2019-05-30T19:33:44.194Z,87.33
2019-05-30T19:36:09.978Z,87.47
2019-05-30T19:38:35.812Z,87.44
2019-05-30T19:41:02.784Z,87.53
2019-05-30T19:43:29.797Z,87.79
2019-05-30T19:45:56.130Z,88.03
2019-05-30T19:48:21.936Z,88.04
2019-05-30T19:50:47.742Z,88.19
2019-05-30T19:53:13.721Z,88.25
2019-05-30T19:55:39.855Z,88.57
2019-05-30T19:58:06.031Z,88.42
2019-05-30T20:00:32.107Z,88.43
2019-05-30T20:02:58.397Z,88.47
2019-05-30T20:05:24.251Z,89.11
2019-05-30T20:07:50.057Z,89.07
2019-05-30T20:10:15.849Z,89.25
2019-05-30T20:12:41.647Z,89.40
2019-05-30T20:15:09.944Z,89.57
2019-05-30T20:17:35.739Z,89.65
2019-05-30T20:20:01.706Z,89.65
2019-05-30T20:22:27.575Z,89.93
2019-05-30T20:24:53.397Z,89.90
2019-05-30T20:27:19.193Z,90.29
2019-05-30T20:29:46.489Z,90.37
2019-05-30T20:32:12.381Z,90.31
2019-05-30T20:34:38.871Z,90.41
2019-05-30T20:37:04.755Z,90.34
2019-05-30T20:39:30.550Z,90.64
2019-05-30T20:41:56.386Z,90.99
2019-05-30T20:44:22.236Z,90.97
2019-05-30T20:46:48.017Z,91.08
2019-05-30T20:49:13.805Z,91.36
2019-05-30T20:51:39.784Z,91.05
2019-05-30T20:54:05.701Z,90.95
2019-05-30T20:56:31.477Z,90.79
2019-05-30T20:58:57.277Z,91.15
2019-05-30T21:01:23.061Z,91.11
2019-05-30T21:03:48.878Z,90.92
2019-05-30T21:06:14.770Z,90.86
2019-05-30T21:08:41.270Z,91.10
2019-05-30T21:11:07.229Z,91.44
2019-05-30T21:13:33.228Z,91.53
2019-05-30T21:15:59.028Z,91.73
2019-05-30T21:18:25.922Z,91.79
2019-05-30T21:20:51.731Z,91.73
2019-05-30T21:23:17.527Z,91.82
2019-05-30T21:25:43.361Z,91.82
2019-05-30T21:28:09.151Z,92.12
2019-05-30T21:30:34.944Z,92.18
2019-05-30T21:33:00.747Z,92.32
2019-05-30T21:35:26.869Z,92.14
2019-05-30T21:37:52.731Z,92.39
2019-05-30T21:40:18.520Z,92.33
2019-05-30T21:42:57.776Z,92.23
2019-05-30T21:45:12.114Z,92.25
2019-05-30T21:47:38.686Z,92.25
2019-05-30T21:50:05.581Z,92.22
2019-05-30T21:52:31.362Z,92.25
2019-05-30T21:54:57.181Z,92.31
2019-05-30T21:57:22.965Z,92.27
2019-05-30T21:59:48.985Z,92.18
2019-05-30T22:02:14.738Z,92.33
2019-05-30T22:04:40.548Z,92.62
2019-05-30T22:07:06.348Z,92.44
2019-05-30T22:09:32.140Z,92.36
2019-05-30T22:11:57.954Z,92.25
2019-05-30T22:14:23.723Z,92.27
2019-05-30T22:16:50.257Z,92.43
2019-05-30T22:19:16.147Z,92.68
2019-05-30T22:21:42.053Z,92.50
2019-05-30T22:24:07.835Z,92.74
2019-05-30T22:26:33.652Z,92.70
2019-05-30T22:28:59.456Z,92.86
2019-05-30T22:31:25.258Z,92.91
2019-05-30T22:33:51.701Z,92.88
2019-05-30T22:36:17.864Z,93.14
2019-05-30T22:38:44.768Z,92.96
2019-05-30T22:41:10.657Z,93.09
2019-05-30T22:43:36.472Z,93.41
2019-05-30T22:46:02.273Z,93.61
2019-05-30T22:48:28.053Z,93.34
2019-05-30T22:50:53.843Z,93.54
2019-05-30T22:53:19.617Z,93.70
2019-05-30T22:55:45.426Z,93.55
2019-05-30T22:58:11.184Z,94.01
2019-05-30T23:00:37.000Z,94.29
2019-05-30T23:03:02.813Z,94.16
2019-05-30T23:05:28.585Z,94.08
2019-05-30T23:07:55.563Z,94.37
2019-05-30T23:10:21.482Z,94.33
2019-05-30T23:12:47.732Z,94.70
2019-05-30T23:15:13.557Z,95.08
2019-05-30T23:17:39.350Z,94.88
2019-05-30T23:20:05.325Z,95.31
2019-05-30T23:22:31.121Z,95.14
2019-05-30T23:24:57.513Z,95.54
2019-05-30T23:27:23.450Z,95.25
2019-05-30T23:29:49.732Z,95.38
2019-05-30T23:32:15.529Z,95.11
2019-05-30T23:34:41.312Z,95.06
2019-05-30T23:37:07.192Z,95.26
2019-05-30T23:39:32.979Z,95.05
2019-05-30T23:41:59.362Z,94.79
2019-05-30T23:44:25.193Z,94.98
2019-05-30T23:46:51.430Z,95.15
2019-05-30T23:49:17.272Z,95.18
2019-05-30T23:51:43.063Z,95.27
2019-05-30T23:54:08.842Z,95.38
2019-05-30T23:56:34.622Z,95.21
2019-05-30T23:59:01.261Z,95.25
